Date,TemperatureHighF,TemperatureAvgF,TemperatureLowF,DewpointHighF,DewpointAvgF,DewpointLowF,HumidityHigh,HumidityAvg,HumidityLow,PressureMaxIn,PressureMinIn,WindSpeedMaxMPH,WindSpeedAvgMPH,GustSpeedMaxMPH,PrecipitationSumIn
2013-1-1,39.1,34.8,30.9,33.5,30.2,27.9,90,83,75,29.95,29.83,9,3,13,0.00
2013-1-2,40.7,38.0,35.3,36.7,32.6,30.4,90,81,68,30.41,29.92,17,7,23,0.01
2013-1-3,43.0,37.9,33.8,40.0,34.1,29.9,93,87,74,30.43,30.33,23,8,32,0.07
2013-1-4,47.2,44.8,42.5,45.6,42.1,39.2,96,91,78,30.43,30.17,28,11,32,0.60
2013-1-5,46.7,43.4,39.7,45.2,41.5,38.6,97,93,88,30.34,30.16,20,7,23,0.16
2013-1-6,42.2,40.5,38.7,40.9,39.3,37.9,98,96,90,30.33,30.12,18,6,22,0.24
2013-1-7,41.9,37.6,35.6,41.3,36.8,34.9,98,97,94,30.36,30.18,10,2,14,0.26
2013-1-8,40.2,38.2,35.6,39.3,37.6,35.0,99,98,96,30.33,30.18,11,3,13,0.10
2013-1-9,40.9,39.4,38.1,40.1,38.5,36.5,98,97,94,30.20,29.89,13,4,19,0.02
2013-1-10,38.0,36.4,34.8,36.5,33.7,31.4,97,90,82,29.89,29.70,20,9,24,0.12
2013-1-11,35.0,27.8,24.8,32.6,24.4,19.4,97,87,78,30.04,29.70,14,6,20,0.00
2013-1-12,27.9,24.5,18.7,22.4,20.2,16.7,93,84,72,30.10,30.02,10,3,13,0.00
2013-1-13,25.7,22.7,18.5,22.6,19.9,16.5,95,89,76,30.11,30.08,9,2,13,0.00
2013-1-14,27.6,24.9,21.2,25.9,23.3,19.9,96,94,89,30.08,29.92,12,2,14,0.00
2013-1-15,25.9,23.9,20.0,24.4,22.5,18.8,96,94,91,29.96,29.77,8,1,11,0.00
2013-1-16,26.2,25.3,24.0,25.4,23.9,22.7,97,95,91,29.79,29.74,8,1,10,0.00
2013-1-17,26.7,24.8,23.4,25.2,23.3,21.6,96,94,91,29.91,29.75,11,4,14,0.00
2013-1-18,23.5,20.8,19.3,22.2,19.4,17.8,95,94,93,29.91,29.73,7,2,12,0.00
2013-1-19,20.9,19.2,17.7,18.0,17.0,15.7,94,91,87,29.73,29.57,9,2,10,0.00
2013-1-20,25.7,22.4,20.0,24.9,21.0,17.8,97,94,90,29.59,29.48,10,3,13,0.00
2013-1-21,26.4,24.8,21.2,25.6,24.0,19.9,97,97,95,29.61,29.46,4,1,7,0.00
2013-1-22,22.5,19.8,17.8,19.8,17.9,15.9,95,92,87,29.81,29.61,4,1,5,0.00
2013-1-23,24.9,21.7,18.8,23.0,19.9,16.6,95,93,91,29.83,29.80,3,1,5,0.00
2013-1-24,24.0,22.1,18.8,22.7,20.8,17.1,96,94,92,30.00,29.80,9,2,11,0.00
2013-1-25,21.2,17.8,11.0,18.7,15.7,9.1,93,91,85,30.18,30.01,11,2,11,0.00
2013-1-26,16.6,11.1,2.2,14.0,9.1,0.0,94,91,88,30.12,30.06,9,2,14,0.00
2013-1-27,30.1,23.5,13.6,28.7,21.7,12.1,97,93,89,30.08,29.79,9,2,10,0.00
2013-1-28,35.7,32.3,29.6,33.3,31.2,28.8,98,96,90,30.11,29.80,10,2,14,0.06
2013-1-29,41.0,37.2,32.3,40.1,35.7,31.2,98,95,86,30.10,29.90,20,7,29,0.42
2013-1-30,54.0,47.2,40.0,48.7,44.3,39.2,98,90,80,29.93,29.68,32,10,36,0.21
2013-1-31,45.2,42.7,38.4,39.9,34.8,30.1,91,74,56,29.96,29.76,29,14,40,0.13
2013-2-1,43.4,39.5,36.4,36.2,35.0,33.1,97,84,71,29.83,29.29,21,8,33,0.04
2013-2-2,38.5,35.9,30.3,37.7,32.7,23.8,98,88,76,29.74,29.18,18,6,22,0.02
2013-2-3,34.9,31.0,26.8,30.2,24.8,20.8,94,78,66,29.96,29.74,21,8,24,0.01
2013-2-4,40.5,35.3,31.1,37.6,33.2,29.7,96,92,88,29.83,29.73,24,10,33,0.28
2013-2-5,41.9,37.8,34.0,36.8,34.0,30.2,94,87,73,29.82,29.48,16,7,33,0.02
2013-2-6,37.5,32.4,26.6,29.8,25.5,21.2,90,76,53,29.60,29.49,11,4,15,0.00
2013-2-7,35.2,29.4,25.6,29.7,26.1,22.3,95,88,73,29.82,29.60,11,2,14,0.00
2013-2-8,32.7,28.3,25.2,26.8,24.7,22.6,93,87,71,29.95,29.82,9,2,12,0.02
2013-2-9,29.9,27.7,25.3,25.5,23.7,21.3,94,85,74,30.07,29.95,9,2,11,0.01
2013-2-10,29.0,26.3,24.2,23.2,21.5,18.3,92,82,65,30.06,29.92,8,2,12,0.00
2013-2-11,27.6,25.1,21.9,22.2,20.6,18.6,91,83,77,29.92,29.78,16,5,18,0.00
2013-2-12,27.6,26.7,25.5,26.6,24.5,22.2,96,92,80,29.95,29.75,11,4,16,0.00
2013-2-13,29.0,27.2,26.4,26.7,25.8,24.6,97,94,89,30.32,29.95,10,3,13,0.00
2013-2-14,30.6,27.6,25.8,27.6,25.8,24.5,96,93,88,30.32,30.12,8,2,10,0.02
2013-2-15,33.2,30.5,27.9,30.0,28.7,26.4,97,93,87,30.18,30.06,5,1,8,0.02
2013-2-16,32.9,30.9,28.6,31.2,29.4,27.6,97,94,90,30.26,30.18,4,1,5,0.06
2013-2-17,33.4,30.7,28.2,30.8,28.7,27.0,98,92,83,30.27,30.23,4,1,7,0.02
2013-2-18,33.1,31.1,29.7,29.6,28.7,26.9,96,91,84,30.23,30.10,6,1,9,0.00
2013-2-19,31.5,30.2,28.0,30.7,28.2,25.8,97,93,83,30.10,29.82,17,7,23,0.00
2013-2-20,28.4,26.7,24.0,26.7,25.0,22.5,96,93,87,30.14,29.96,10,4,16,0.00
2013-2-21,25.4,22.8,20.2,22.9,20.4,17.4,95,91,81,30.16,30.09,11,2,13,0.03
2013-2-22,23.9,20.9,17.5,22.4,18.8,15.0,95,91,87,30.09,29.88,14,6,20,0.00
2013-2-23,29.3,25.8,23.0,28.3,24.7,21.6,97,96,94,29.88,29.75,9,2,13,0.00
2013-2-24,36.5,32.2,27.1,35.6,31.2,26.3,98,97,90,29.96,29.77,7,2,9,0.41
2013-2-25,40.2,37.8,35.4,39.4,37.0,34.8,99,97,93,30.26,29.94,9,3,10,0.19
2013-2-26,38.5,35.4,31.7,37.7,34.7,31.2,99,97,95,30.37,30.25,10,3,13,0.00
2013-2-27,34.5,32.5,31.0,33.6,31.9,30.7,99,98,95,30.43,30.37,8,2,12,0.02
2013-2-28,38.0,34.6,32.3,32.9,31.9,30.2,97,90,80,30.41,30.21,7,1,10,0.00
2013-3-1,35.1,32.7,31.5,31.3,29.8,27.8,95,89,80,30.24,30.14,12,5,16,0.00
2013-3-2,39.2,32.3,27.2,29.2,26.3,23.7,89,79,59,30.28,30.14,14,3,14,0.00
2013-3-3,36.2,31.1,23.7,30.3,26.5,21.4,92,83,72,30.25,30.12,12,3,17,0.00
2013-3-4,42.9,35.2,28.7,30.2,26.8,24.2,93,73,52,30.29,30.19,9,2,15,0.00
2013-3-5,47.4,38.9,32.4,34.2,29.5,24.5,80,69,57,30.19,29.88,13,5,19,0.00
2013-3-6,53.3,42.1,30.7,39.7,33.1,27.5,89,72,51,29.88,29.64,7,2,10,0.00
2013-3-7,50.1,44.0,39.9,44.1,41.0,37.9,95,89,78,29.64,29.58,5,1,8,0.00
2013-3-8,45.3,42.5,39.4,44.1,41.5,38.6,99,96,93,29.65,29.61,7,2,9,0.00
2013-3-9,42.5,39.9,37.5,41.9,39.3,36.9,99,98,97,29.65,29.58,5,1,6,0.14
2013-3-10,52.4,44.3,40.1,46.1,41.2,39.1,100,90,62,29.58,29.44,12,2,17,0.02
2013-3-11,42.5,29.2,24.7,40.7,26.9,22.4,96,91,85,29.69,29.44,13,4,19,0.06
2013-3-12,29.1,26.5,24.1,26.8,24.4,21.8,93,92,90,29.68,29.52,8,3,11,0.00
2013-3-13,26.3,24.0,21.8,24.3,21.7,18.9,96,91,83,29.74,29.51,10,3,12,0.00
2013-3-14,29.2,23.5,19.6,19.9,17.9,16.3,91,79,63,29.83,29.74,12,5,21,0.00
2013-3-15,29.0,23.9,19.7,22.2,18.3,15.3,93,80,58,30.09,29.82,16,5,21,0.00
2013-3-16,36.0,25.9,15.1,21.5,16.2,11.5,94,70,39,30.18,30.06,9,2,11,0.01
2013-3-17,37.5,29.8,24.0,22.5,20.0,15.6,75,67,53,30.06,29.70,23,8,30,0.01
2013-3-18,37.3,31.4,27.8,32.1,27.3,22.3,97,85,69,29.70,29.24,13,6,18,0.00
2013-3-19,37.7,32.8,30.1,34.4,31.0,29.3,97,94,87,29.61,29.23,17,6,21,0.30
2013-3-20,48.2,38.9,30.4,37.0,33.4,28.8,96,82,57,29.79,29.61,14,4,17,0.02
2013-3-21,37.6,32.9,27.8,36.1,29.1,22.9,96,86,74,30.07,29.79,16,5,24,0.02
2013-3-22,30.6,27.6,25.8,25.6,23.1,20.8,93,83,73,30.14,30.07,13,4,18,0.00
2013-3-23,27.6,22.8,15.4,21.3,14.4,7.4,84,70,56,30.22,30.12,18,8,24,0.00
2013-3-24,31.1,21.7,13.0,15.5,8.8,5.1,78,59,34,30.21,30.10,22,9,30,0.00
2013-3-25,27.5,23.0,20.4,18.9,15.2,13.1,81,72,61,30.11,29.94,23,10,26,0.00
2013-3-27,23.0,22.5,21.8,19.7,19.4,19.0,89,88,86,29.90,29.89,9,5,11,0.00
2013-3-28,37.6,33.1,26.6,28.6,27.0,24.5,92,79,68,29.90,29.78,11,5,18,0.00
2013-3-29,40.3,34.3,30.2,32.6,27.3,23.6,96,77,53,29.78,29.67,21,6,27,0.03
2013-3-30,43.1,34.8,28.3,28.6,26.2,23.3,87,72,52,29.73,29.65,11,2,14,0.00
2013-3-31,33.9,30.7,28.8,29.4,27.0,24.9,94,86,73,29.79,29.69,13,4,18,0.02
2013-4-1,34.1,29.4,26.9,27.2,25.1,23.8,94,84,70,29.89,29.78,10,4,14,0.02
2013-4-2,36.4,31.5,28.4,28.1,25.5,23.6,89,79,68,29.95,29.86,21,5,27,0.00
2013-4-3,35.0,31.4,29.1,27.5,25.2,23.3,86,78,70,29.97,29.94,16,5,18,0.00
2013-4-4,37.1,32.3,28.7,30.2,28.1,26.1,92,84,72,29.96,29.85,7,2,9,0.00
2013-4-5,35.6,32.9,31.2,31.8,30.1,28.9,92,90,85,29.86,29.74,10,3,14,0.00
2013-4-6,37.1,34.0,32.1,32.5,31.2,30.0,95,89,82,30.13,29.86,9,3,13,0.00
2013-4-7,37.4,33.7,30.2,31.8,29.8,26.8,94,86,68,30.16,30.06,8,2,11,0.00
2013-4-8,46.5,37.4,27.0,30.0,26.4,22.5,96,68,41,30.06,29.73,13,3,17,0.00
2013-4-9,49.7,41.2,35.1,39.6,34.4,29.2,95,77,60,29.73,29.66,9,2,17,0.09
2013-4-10,51.0,43.4,36.9,43.1,39.7,35.8,97,87,69,29.85,29.67,19,5,24,0.03
2013-4-11,56.8,48.2,39.1,47.5,42.0,36.5,91,80,60,29.85,29.63,18,5,28,0.02
2013-4-12,54.1,50.0,43.5,48.7,44.7,39.1,97,83,66,29.81,29.54,25,6,33,0.14
2013-4-13,56.3,48.8,43.0,42.8,39.8,35.8,86,72,47,30.25,29.81,26,8,30,0.01
2013-4-14,61.3,50.2,37.8,42.8,40.0,35.6,93,70,48,30.37,30.25,8,1,12,0.00
2013-4-15,65.6,55.7,46.7,43.2,39.4,34.9,78,56,36,30.32,30.15,15,3,19,0.00
2013-4-16,65.9,57.1,49.2,47.4,41.9,35.3,76,57,49,30.16,30.09,9,3,15,0.01
2013-4-17,67.4,59.4,50.5,53.5,49.2,46.7,90,71,51,30.21,30.13,8,1,11,0.00
2013-4-18,76.6,64.3,51.5,53.3,50.5,48.0,89,63,39,30.13,29.93,11,3,17,0.00
2013-4-19,64.0,54.4,47.4,53.8,44.8,37.6,93,71,50,30.20,29.98,11,3,13,0.08
2013-4-20,49.0,45.5,42.2,43.9,41.0,38.9,94,85,74,30.29,30.20,13,5,21,0.08
2013-4-21,67.0,52.8,41.5,51.6,44.5,38.5,89,75,48,30.26,29.94,14,4,19,0.00
2013-4-22,67.2,56.6,47.0,51.0,47.5,42.4,85,72,48,30.01,29.90,10,2,15,0.00
2013-4-23,63.5,55.8,46.9,49.7,45.7,42.2,96,71,49,30.21,30.01,16,4,22,0.00
2013-4-24,69.0,58.2,45.2,46.3,43.8,41.2,86,61,40,30.32,30.21,11,2,14,0.00
2013-4-25,73.5,61.8,48.8,50.3,46.5,44.2,86,60,38,30.27,30.10,10,2,14,0.00
2013-4-26,76.6,65.9,52.3,52.9,47.6,42.9,78,54,31,30.10,29.54,15,3,20,0.00
2013-4-27,66.2,58.2,46.7,56.1,51.3,45.8,97,79,56,29.67,29.53,19,4,27,0.35
2013-4-28,49.6,44.5,40.9,45.8,42.2,39.0,98,92,79,30.04,29.63,17,4,20,0.00
2013-4-29,54.5,50.0,44.9,49.9,46.8,42.7,95,89,81,30.14,29.97,8,3,11,0.02
2013-4-30,59.4,52.5,45.3,51.9,47.7,43.9,96,84,72,30.15,30.02,13,3,16,0.03
2013-5-1,55.7,49.3,45.3,50.5,46.6,43.4,97,91,82,30.22,30.08,13,4,15,0.03
2013-5-2,57.8,51.8,47.2,55.5,50.4,46.3,99,95,88,30.15,29.97,12,2,17,0.30
2013-5-3,51.2,49.5,45.9,50.5,48.7,44.5,98,97,93,30.00,29.92,12,4,14,0.35
2013-5-4,62.5,54.6,46.0,53.7,50.3,44.2,99,86,69,30.11,30.00,16,2,24,0.26
2013-5-5,62.8,54.1,45.4,55.5,50.6,44.8,99,89,73,30.23,30.11,8,2,13,0.02
2013-5-6,64.3,61.4,54.1,58.7,57.0,50.3,89,86,81,30.20,29.99,8,2,14,0.02
2013-5-7,68.6,62.4,57.5,59.2,57.0,55.0,94,83,69,30.00,29.91,14,4,19,0.01
2013-5-8,72.3,63.9,56.1,58.7,56.4,54.0,96,78,54,29.97,29.89,11,2,18,0.00
2013-5-9,74.8,68.2,60.0,61.1,57.0,53.6,83,68,50,29.95,29.87,9,2,13,0.02
2013-5-10,57.9,54.6,52.0,56.6,53.4,50.8,97,96,94,29.98,29.82,13,3,17,0.38
2013-5-11,56.0,51.6,48.4,51.6,49.6,47.8,99,93,80,29.99,29.94,8,2,12,0.02
2013-5-14,63.7,59.3,54.2,46.4,45.0,43.0,73,60,50,29.95,29.81,12,3,16,0.00
2013-5-15,70.1,61.3,50.8,53.1,49.0,44.1,79,65,51,29.82,29.59,24,6,24,0.00
2013-5-16,72.3,64.2,55.0,53.1,51.2,48.8,83,64,46,29.59,29.45,22,7,33,0.00
2013-5-17,70.8,63.7,56.7,57.4,53.8,50.4,84,71,55,29.53,29.45,21,7,28,0.00
2013-5-18,63.8,57.3,52.7,51.7,50.2,47.7,94,78,56,29.83,29.70,16,7,21,0.32
2013-5-19,67.8,56.1,54.2,54.5,54.0,52.5,96,93,61,29.73,29.63,13,7,22,0.12
2013-5-20,63.9,55.4,46.9,52.0,45.7,42.5,95,72,46,29.89,29.73,19,5,23,0.00
2013-5-21,63.5,54.4,45.9,50.0,45.8,41.4,94,75,48,29.91,29.78,14,3,17,0.05
2013-5-22,57.5,50.1,43.6,48.9,45.9,40.5,93,86,67,29.82,29.67,15,3,18,0.22
2013-5-23,52.1,45.8,39.9,41.1,38.4,35.1,90,76,57,29.83,29.71,10,2,12,0.00
2013-5-24,51.8,44.7,36.4,44.7,40.3,34.6,96,85,61,29.84,29.72,9,3,14,0.00
2013-5-25,51.3,45.2,41.2,45.3,41.9,39.0,96,89,74,29.84,29.79,15,4,19,0.09
2013-5-26,45.4,42.7,40.5,42.3,40.7,39.1,97,93,84,29.80,29.69,21,7,29,0.24
2013-5-27,51.5,46.5,40.7,47.8,44.7,39.9,98,94,87,29.81,29.64,17,7,22,0.35
2013-5-28,61.0,49.4,40.8,50.4,45.3,39.7,98,87,55,29.80,29.55,14,3,16,0.00
2013-5-29,63.1,54.5,45.6,54.7,49.6,44.5,97,85,68,29.55,29.50,11,2,15,0.01
2013-5-30,50.1,48.5,47.3,49.5,47.7,46.4,98,97,94,29.64,29.44,13,5,18,0.98
2013-5-31,56.8,51.6,46.8,51.6,49.0,45.0,99,91,72,29.66,29.40,13,3,19,0.20
2013-6-1,56.3,48.4,42.3,56.0,47.6,41.5,99,97,92,29.74,29.65,16,3,21,1.06
2013-6-2,56.3,50.5,47.2,56.0,49.9,46.3,99,98,96,30.03,29.65,18,8,25,2.07
2013-6-3,48.8,46.6,44.9,47.8,45.8,44.3,98,97,96,30.12,30.03,21,7,22,0.61
2013-6-4,57.9,52.3,48.0,52.7,49.8,46.7,97,92,81,30.11,30.03,14,5,20,0.04
2013-6-5,62.7,54.9,46.8,53.4,49.1,44.7,98,82,61,30.11,30.05,11,4,15,0.00
2013-6-6,63.9,56.8,50.6,55.5,52.3,48.9,94,86,72,30.15,30.10,10,2,10,0.00
2013-6-7,69.7,60.5,48.6,59.0,55.5,47.6,98,85,66,30.14,30.05,10,2,15,0.00
2013-6-8,73.9,64.6,52.4,61.7,57.4,51.5,99,79,56,30.07,29.87,9,2,11,0.01
2013-6-9,73.5,64.3,58.6,62.4,58.0,55.7,92,81,54,29.87,29.67,8,1,12,0.02
2013-6-10,60.2,57.1,54.5,59.0,56.0,52.1,99,96,90,29.85,29.66,8,2,13,0.48
2013-6-11,67.1,59.4,52.3,53.1,48.5,43.6,98,70,43,30.05,29.85,15,4,20,0.01
2013-6-12,71.7,61.6,47.7,53.6,47.0,43.8,93,62,38,30.13,30.06,8,1,10,0.00
2013-6-13,77.8,66.6,52.7,56.9,51.6,45.1,80,60,42,30.13,29.91,10,2,15,0.00
2013-6-14,66.8,61.1,54.8,56.6,52.4,47.9,95,74,52,30.10,29.91,13,4,22,0.03
2013-6-15,74.8,64.2,51.3,59.5,54.1,48.0,89,71,51,30.05,29.92,15,2,19,0.00
2013-6-16,76.6,67.4,58.9,57.1,54.4,49.5,88,65,46,30.03,29.96,9,2,12,0.00
2013-6-17,84.0,72.6,59.1,65.5,60.2,53.9,87,67,46,30.02,29.93,10,2,14,0.00
2013-6-18,89.4,75.4,65.7,72.1,67.1,63.2,94,77,49,29.98,29.93,8,1,10,0.00
2013-6-19,88.8,79.6,68.6,74.6,68.5,65.3,92,71,48,29.98,29.87,15,3,21,0.00
2013-6-20,90.4,84.1,74.0,73.3,70.0,63.9,78,64,48,29.87,29.71,26,3,32,0.00
2013-6-21,75.3,69.4,62.9,62.3,59.5,56.7,93,72,55,29.99,29.78,22,5,38,0.02
2013-6-22,76.6,69.4,62.5,60.7,57.9,54.1,88,68,48,30.01,29.90,8,2,12,0.07
2013-6-23,71.4,65.7,59.4,61.8,58.2,52.0,97,78,56,29.94,29.87,16,4,24,0.06
2013-6-24,63.4,54.7,51.7,53.8,50.9,46.5,98,88,64,30.05,29.93,15,3,20,1.06
2013-6-25,53.4,51.8,49.1,52.7,50.4,47.4,98,95,90,30.14,29.97,19,8,33,1.53
2013-6-26,51.8,49.1,48.2,48.3,46.8,44.5,95,92,83,30.29,30.13,20,8,20,0.15
2013-6-27,58.9,52.4,46.2,48.9,46.0,44.0,96,80,60,30.28,30.18,7,1,9,0.00
2013-6-28,62.4,54.4,42.8,50.9,46.5,40.4,98,76,45,30.19,30.09,7,1,9,0.00
2013-6-29,64.5,56.4,46.4,52.7,49.6,45.3,97,79,58,30.11,29.99,15,3,20,0.00
2013-6-30,61.5,54.4,49.0,53.3,46.2,39.6,95,75,54,30.18,30.06,16,5,24,0.07
2013-7-1,67.4,55.9,50.1,52.2,49.0,47.2,91,79,53,30.14,30.09,13,2,15,0.00
2013-7-2,73.0,67.6,61.8,62.1,58.0,53.8,86,72,57,30.01,29.92,7,1,10,0.00
2013-7-3,76.6,64.6,58.4,66.3,59.2,55.0,98,84,62,29.97,29.83,21,2,26,0.60
2013-7-4,69.0,62.9,59.6,62.2,60.2,58.4,99,91,73,30.11,29.96,6,2,11,0.02
2013-7-5,72.9,67.5,62.7,62.3,60.5,59.0,89,79,66,30.33,30.25,12,3,19,0.00
2013-7-6,72.7,65.9,59.3,63.0,60.0,57.5,95,82,66,30.35,30.30,12,2,13,0.00
2013-7-7,75.0,68.2,59.2,60.1,56.9,54.0,92,69,49,30.37,30.31,10,2,13,0.00
2013-7-8,72.1,64.1,59.5,57.7,55.4,54.2,83,74,57,30.37,30.29,8,2,12,0.00
2013-7-9,77.3,69.4,57.1,59.6,56.4,52.7,87,65,46,30.31,30.07,10,2,15,0.00
2013-7-10,77.0,68.0,58.1,60.4,57.4,54.8,93,71,47,30.07,29.89,11,2,18,0.00
2013-7-11,62.0,58.0,54.3,54.7,51.3,49.5,85,79,69,30.06,29.94,13,4,17,0.00
2013-7-12,68.0,60.5,54.9,55.6,52.2,50.4,90,75,59,30.11,30.05,11,4,18,0.00
2013-7-13,70.6,61.8,50.6,55.4,52.4,49.2,97,73,52,30.11,30.07,13,3,14,0.00
2013-7-14,72.7,63.3,52.1,56.8,53.7,49.6,93,72,52,30.12,30.06,11,2,15,0.00
2013-7-15,68.1,61.8,54.7,56.9,52.8,49.6,91,73,53,30.19,30.07,13,3,16,0.00
2013-7-16,77.5,64.4,50.1,56.3,52.2,48.2,95,68,42,30.24,30.15,7,1,11,0.00
2013-7-17,78.5,68.9,55.4,59.7,54.3,50.4,85,61,43,30.18,30.12,9,2,11,0.00
2013-7-18,78.2,70.4,59.9,60.4,56.2,53.7,82,62,45,30.17,30.10,9,2,15,0.00
2013-7-19,79.4,71.3,61.6,61.7,57.7,54.0,86,64,42,30.13,30.00,11,2,14,0.00
2013-7-20,75.1,67.5,60.8,60.0,56.1,51.6,82,68,46,30.11,30.04,11,3,16,0.00
2013-7-21,77.1,68.7,57.6,58.9,54.2,50.9,88,62,42,30.17,30.10,13,2,17,0.00
2013-7-22,83.2,71.1,56.2,58.1,53.6,50.0,85,57,32,30.11,29.95,8,1,10,0.00
2013-7-23,84.7,72.4,57.1,60.8,52.5,48.1,79,52,29,29.95,29.88,11,2,13,0.00
2013-7-24,85.9,73.9,60.7,61.1,54.4,51.0,76,52,32,29.95,29.87,14,2,20,0.01
2013-7-25,78.0,67.3,63.3,64.1,62.3,60.5,96,85,59,29.99,29.93,10,2,13,0.08
2013-7-26,86.6,74.7,63.0,65.4,61.9,59.3,90,67,43,30.00,29.90,8,1,10,0.00
2013-7-27,92.8,80.6,64.3,67.0,61.4,56.6,86,55,33,29.91,29.78,8,1,11,0.00
2013-7-28,94.7,83.8,72.5,67.0,63.0,57.9,71,51,34,29.86,29.76,11,2,12,0.00
2013-7-29,83.3,74.1,63.0,68.0,64.9,61.5,96,75,54,29.89,29.69,19,6,23,0.29
2013-7-30,72.0,65.5,59.7,62.1,58.2,53.9,96,79,59,30.07,29.86,19,7,27,0.19
2013-7-31,74.2,66.8,58.7,61.5,58.6,54.7,95,76,59,30.10,30.03,22,4,26,0.00
2013-8-1,82.8,69.3,57.3,62.3,58.9,56.0,96,73,44,30.12,30.01,7,1,14,0.00
2013-8-2,91.3,78.5,63.0,63.4,58.4,52.9,83,53,28,30.03,29.92,12,1,12,0.00
2013-8-3,95.3,81.3,67.7,67.4,59.7,51.7,70,51,24,30.01,29.91,13,2,15,0.00
2013-8-4,82.9,71.1,60.5,66.9,63.5,58.8,96,79,55,30.13,29.98,33,4,47,1.53
2013-8-5,83.1,68.8,56.6,66.6,61.9,56.0,99,81,49,30.13,29.99,7,1,9,0.01
2013-8-6,91.0,77.0,62.6,68.9,64.2,60.6,95,67,39,30.00,29.83,30,2,35,1.09
2013-8-7,82.7,72.1,60.9,68.6,64.4,59.3,98,79,56,30.02,29.81,19,4,34,0.50
2013-8-8,82.4,75.1,67.2,69.5,64.1,56.2,87,69,47,29.98,29.75,15,2,21,0.01
2013-8-9,69.0,62.6,54.5,64.0,59.2,53.6,97,89,79,30.09,29.97,13,4,19,0.35
2013-8-10,72.2,61.9,52.7,58.7,55.4,51.5,98,81,57,30.11,30.02,16,3,18,0.00
2013-8-11,71.5,61.8,52.7,57.7,54.7,51.4,98,79,52,30.07,30.00,12,2,19,0.01
2013-8-12,75.5,63.1,50.5,57.9,52.4,47.9,96,71,42,30.08,29.89,10,1,13,0.00
2013-8-13,68.0,61.3,56.5,55.5,51.6,43.7,93,72,42,30.09,29.88,16,4,22,0.00
2013-8-14,66.8,58.7,51.1,49.4,47.1,43.6,89,67,44,30.22,30.09,10,2,17,0.00
2013-8-15,70.7,59.4,47.0,52.4,45.1,40.7,89,62,35,30.27,30.18,7,1,9,0.00
2013-8-16,75.0,65.6,54.2,50.2,46.2,43.3,69,51,33,30.21,30.06,9,1,13,0.00
2013-8-17,81.8,68.5,55.3,58.0,50.9,45.1,70,55,36,30.07,29.96,11,1,14,0.00
2013-8-18,84.6,72.2,60.6,61.0,55.9,50.7,72,58,40,29.98,29.90,14,2,17,0.00
2013-8-19,70.1,63.0,58.6,63.8,59.7,57.4,98,90,68,30.07,29.93,29,2,29,0.26
2013-8-20,63.7,57.2,52.1,57.4,54.2,50.7,96,90,73,30.35,30.07,11,3,16,0.02
2013-8-21,68.4,57.6,46.0,55.3,49.9,45.1,98,78,49,30.35,30.21,7,1,10,0.01
2013-8-22,69.6,58.3,47.4,56.2,51.0,46.0,96,78,52,30.21,30.10,7,1,8,0.00
2013-8-23,69.6,61.8,52.7,53.8,51.6,49.2,89,70,52,30.12,30.03,13,4,16,0.00
2013-8-24,65.0,59.5,55.6,55.5,53.3,51.7,88,80,69,30.05,29.99,10,2,15,0.00
2013-8-25,58.8,57.1,55.9,56.1,55.3,54.6,96,94,89,29.89,29.84,19,8,23,0.48
2013-8-26,60.0,57.0,55.1,56.8,54.9,52.5,98,93,79,30.00,29.88,13,3,15,0.41
2013-8-27,58.6,55.8,54.2,54.2,52.8,51.6,97,90,79,29.99,29.94,11,3,15,0.03
2013-8-28,64.7,58.0,53.4,57.3,54.6,52.5,98,89,72,30.09,29.93,8,2,11,0.24
2013-8-29,70.2,57.4,46.0,59.3,52.0,45.1,99,84,48,30.18,30.09,8,1,16,0.04
2013-8-30,73.1,60.5,49.2,58.4,52.6,48.3,98,78,46,30.17,30.08,6,1,9,0.01
2013-8-31,72.9,63.9,54.1,58.0,53.7,50.8,90,71,47,30.09,30.02,14,3,22,0.05
2013-9-1,61.5,57.1,49.4,56.7,48.6,40.9,96,75,49,30.22,30.07,12,3,15,0.61
2013-9-2,61.4,53.5,46.0,52.1,47.7,43.8,93,82,63,30.22,30.12,21,6,27,0.02
2013-9-3,63.4,61.9,59.7,58.5,57.4,55.1,92,85,82,30.30,30.18,15,4,22,0.01
2013-9-4,71.5,63.4,58.4,60.7,58.4,55.6,97,85,65,30.30,30.17,6,1,9,0.00
2013-9-5,73.2,63.9,54.5,61.7,57.1,53.1,97,80,58,30.17,30.01,7,1,9,0.00
2013-9-6,73.6,65.2,56.7,56.1,53.4,50.5,83,67,50,30.01,29.93,13,3,18,0.00
2013-9-7,75.7,65.5,57.7,57.8,52.8,50.1,76,65,45,30.10,29.99,10,2,13,0.00
2013-9-8,76.8,66.4,58.5,61.4,53.9,46.4,74,65,51,30.10,29.96,13,3,17,0.00
2013-9-9,66.1,59.7,48.4,58.0,51.2,44.4,97,75,54,30.07,29.82,24,6,27,0.35
2013-9-10,63.1,53.2,46.9,53.3,48.7,43.9,96,86,59,30.07,29.93,14,2,17,0.50
2013-9-11,57.3,52.3,48.2,49.7,47.7,45.9,97,85,67,30.00,29.91,14,4,21,0.01
2013-9-12,56.3,51.6,49.6,49.9,47.9,46.8,94,88,75,29.92,29.88,10,3,12,0.01
2013-9-14,56.4,55.7,55.3,53.3,53.1,52.7,92,91,89,29.93,29.92,2,0,4,0.01
2013-9-15,63.5,58.1,53.8,59.4,55.9,52.5,97,92,83,29.92,29.72,11,2,16,0.14
2013-9-16,57.1,54.8,52.2,56.2,53.1,50.6,98,94,83,29.72,29.52,16,4,22,0.24
2013-9-17,53.9,48.0,43.1,51.9,44.4,40.6,98,88,66,29.70,29.49,18,6,25,0.10
2013-9-18,54.7,46.8,40.4,53.8,45.4,38.8,98,95,91,29.69,29.45,12,2,13,0.35
2013-9-19,54.2,48.5,44.6,48.7,45.1,43.0,95,88,74,29.96,29.61,25,5,27,0.12
2013-9-20,56.2,49.5,43.7,52.3,47.5,42.1,96,93,86,30.08,29.94,12,4,16,0.07
2013-9-21,55.8,53.0,50.7,51.8,50.1,48.4,94,90,82,30.34,30.07,14,5,17,0.01
2013-9-22,58.4,51.9,44.3,53.5,48.5,43.5,99,89,73,30.35,30.23,12,3,17,0.01
2013-9-23,60.0,56.8,54.4,54.2,52.0,49.9,90,84,74,30.23,30.06,18,7,20,0.00
2013-9-24,61.7,55.8,50.3,54.1,51.6,49.2,96,86,76,30.06,29.93,16,5,17,0.00
2013-9-25,60.8,54.4,48.9,55.2,51.4,47.4,98,90,77,29.96,29.82,7,1,9,0.00
2013-9-26,61.5,54.1,45.8,55.8,51.2,44.1,96,90,72,30.05,29.77,16,5,24,0.03
2013-9-27,53.9,46.1,38.7,44.1,40.6,37.7,97,82,57,30.10,30.03,9,1,12,0.00
2013-9-28,57.6,45.1,34.4,44.9,39.3,33.3,98,82,53,30.07,29.98,9,1,12,0.01
2013-9-29,56.1,48.2,41.0,42.7,40.8,38.2,90,76,59,30.02,29.94,19,6,24,0.00
2013-9-30,54.9,46.6,41.1,40.8,38.4,36.5,88,74,50,29.94,29.87,17,7,22,0.00
2013-10-1,52.1,44.0,36.1,38.2,35.8,33.1,91,74,54,30.09,29.91,14,3,18,0.00
2013-10-2,49.4,42.3,37.2,38.0,34.2,30.6,91,74,49,30.37,30.09,12,3,18,0.00
2013-10-3,49.5,41.3,34.7,34.0,32.0,29.5,88,71,52,30.42,30.35,15,4,22,0.00
2013-10-4,54.4,43.8,35.8,33.1,31.0,28.9,77,62,40,30.38,30.25,15,5,18,0.00
2013-10-5,55.5,45.2,36.3,40.1,35.7,31.2,82,70,53,30.24,30.08,10,3,16,0.00
2013-10-6,57.7,47.5,39.8,44.6,41.2,37.1,91,80,59,30.32,30.13,5,0,7,0.00
2013-10-7,54.4,47.1,41.5,48.6,44.0,39.3,96,89,79,30.38,30.32,6,1,7,0.00
2013-10-8,62.2,51.8,45.4,49.2,45.7,43.5,94,81,57,30.34,30.21,7,2,11,0.01
2013-10-9,53.2,47.2,38.4,49.4,45.2,37.3,98,93,86,30.21,29.94,9,2,11,0.01
2013-10-10,61.5,52.6,45.2,52.2,48.3,44.3,97,86,64,29.93,29.66,12,3,19,0.76
2013-10-11,56.1,46.9,41.8,54.2,46.0,40.7,99,97,92,30.11,29.79,14,4,27,0.31
2013-10-12,54.9,48.0,39.9,52.9,46.6,39.1,98,95,84,30.13,30.00,8,2,11,0.05
2013-10-13,55.5,48.1,42.6,51.0,44.4,41.9,98,88,68,30.18,30.04,13,2,15,0.00
2013-10-14,59.7,48.2,38.6,52.0,44.8,37.5,98,89,65,30.19,30.07,6,1,9,0.01
2013-10-15,55.2,46.7,40.2,49.3,44.6,39.4,98,93,79,30.07,29.76,14,3,20,0.10
2013-10-16,49.1,45.2,39.5,45.4,43.1,38.5,97,92,81,30.02,29.74,14,4,18,0.02
2013-10-17,54.8,45.0,35.5,48.8,42.3,34.9,99,91,77,30.02,29.89,22,6,28,0.09
2013-10-18,53.3,48.9,43.3,48.4,43.7,41.1,93,82,74,30.17,29.89,25,7,29,0.08
2013-10-19,58.6,47.1,39.7,47.1,42.8,38.9,97,86,64,30.17,30.04,12,2,13,0.01
2013-10-20,64.4,53.5,45.2,55.9,49.5,43.0,98,87,70,30.08,30.01,11,1,17,0.35
2013-10-21,64.1,56.7,50.3,56.3,53.6,49.2,98,90,74,30.08,30.03,13,3,18,0.01
2013-10-22,69.6,57.2,50.0,58.4,53.0,49.4,98,87,64,30.07,29.93,10,2,15,0.01
2013-10-23,65.9,58.0,53.5,58.2,54.9,52.1,97,90,75,29.97,29.84,9,2,14,0.01
2013-10-24,64.7,57.0,51.5,55.0,52.4,49.2,97,85,65,30.15,29.97,13,2,17,0.03
2013-10-25,62.5,53.6,48.0,56.6,51.6,46.9,97,93,81,30.14,30.05,5,1,7,0.02
2013-10-26,67.1,55.7,47.7,58.8,52.5,47.2,99,90,73,30.07,30.01,10,2,13,0.01
2013-10-27,65.2,58.1,51.4,55.2,50.0,45.6,94,76,53,30.01,29.78,26,7,37,0.02
2013-10-28,70.7,59.7,52.7,52.3,49.3,45.5,79,69,50,29.90,29.66,17,6,25,0.00
2013-10-29,59.7,53.2,48.1,49.8,44.9,42.4,86,74,62,30.08,29.81,20,7,22,0.02
2013-10-30,53.2,47.2,37.3,43.6,40.3,34.0,89,77,59,30.37,30.08,17,4,22,0.00
2013-10-31,52.0,42.2,32.6,38.6,35.7,31.4,97,79,55,30.39,30.21,9,1,15,0.01
2013-11-1,49.9,42.9,35.9,43.6,39.3,32.9,96,87,76,30.22,29.99,7,2,12,0.00
2013-11-2,55.9,49.0,42.8,52.0,46.1,40.0,94,90,83,29.99,29.72,18,4,20,0.01
2013-11-3,54.7,48.9,43.0,51.5,44.8,37.9,95,86,78,29.80,29.59,20,7,27,0.14
2013-11-4,53.5,46.2,39.3,43.0,39.2,34.7,85,77,57,29.79,29.34,13,4,22,0.00
2013-11-5,50.3,43.1,35.3,44.4,38.0,31.8,95,82,74,29.55,29.35,17,6,19,0.02
2013-11-6,47.1,42.8,35.8,42.7,38.4,31.3,96,85,66,29.77,29.42,25,7,32,0.24
2013-11-7,59.9,52.7,43.8,51.5,48.7,42.7,98,87,73,29.89,29.74,21,7,32,0.08
2013-11-8,61.9,54.9,51.0,51.7,49.0,46.5,93,81,67,29.88,29.76,17,4,24,0.01
2013-11-9,54.8,48.1,41.0,49.4,44.2,37.7,95,86,80,29.92,29.74,16,5,22,0.13
2013-11-10,47.3,41.5,37.5,42.3,38.2,35.3,96,88,75,30.01,29.64,14,3,21,0.33
2013-11-11,41.9,39.4,37.7,38.3,36.7,32.8,95,90,77,30.51,30.01,10,3,13,0.01
2013-11-12,45.4,37.9,31.6,35.9,33.0,29.2,94,83,63,30.50,30.27,6,1,8,0.00
2013-11-13,40.1,34.1,28.4,38.2,32.9,27.4,98,95,92,30.46,30.28,7,1,8,0.01
2013-11-14,35.0,32.6,29.7,34.4,31.9,28.9,98,97,97,30.42,30.15,6,1,9,0.01
2013-11-15,38.8,35.9,34.0,38.0,35.2,33.4,98,97,96,30.44,30.18,6,1,8,0.02
2013-11-16,47.0,40.4,37.1,42.3,38.5,35.9,97,93,82,30.46,30.35,6,1,7,0.00
2013-11-17,38.3,35.1,28.9,38.0,34.3,28.1,99,97,95,30.35,30.15,7,1,10,0.01
2013-11-18,40.8,38.9,35.6,39.3,37.6,35.0,99,95,91,30.15,29.87,10,2,11,0.00
2013-11-19,45.0,42.5,40.2,42.5,40.3,38.3,94,92,90,29.88,29.61,12,4,19,0.00
2013-11-20,42.7,40.4,37.0,41.2,38.6,34.3,97,94,89,29.65,29.52,15,5,18,0.12
2013-11-21,42.2,38.7,36.0,40.9,36.6,32.4,96,92,86,29.64,29.53,11,3,18,0.00
2013-11-22,44.3,42.3,40.7,41.3,39.9,38.6,97,91,82,29.84,29.58,13,4,16,0.01
2013-11-23,42.7,40.5,37.8,40.2,38.8,36.7,97,94,89,29.93,29.83,9,3,12,0.00
2013-11-24,41.5,37.9,31.2,40.7,35.9,25.6,97,93,78,30.09,29.91,17,6,24,0.03
2013-11-25,33.8,30.7,28.7,28.3,26.1,24.4,88,83,77,30.32,30.09,18,7,25,0.00
2013-11-26,32.3,29.9,28.4,28.0,26.7,25.3,92,88,77,30.49,30.31,15,6,19,0.00
2013-11-27,32.4,27.7,22.8,26.4,23.4,21.2,95,84,69,30.55,30.48,8,3,15,0.00
2013-11-28,35.4,32.3,27.5,32.4,29.2,22.6,94,88,79,30.48,30.31,13,4,19,0.01
2013-11-29,38.3,35.6,33.0,33.8,32.7,31.8,96,89,82,30.31,29.85,17,8,22,0.03
2013-11-30,38.7,36.4,33.3,35.0,33.8,32.2,97,90,85,30.27,29.83,19,8,24,0.08
2013-12-1,39.4,37.3,35.6,35.6,33.7,31.4,93,87,78,30.38,30.28,13,5,18,0.01
2013-12-2,41.0,36.6,31.7,36.4,33.9,28.7,95,90,77,30.61,30.38,7,2,10,0.01
2013-12-3,35.5,31.3,28.3,30.4,27.9,25.4,96,87,78,30.59,30.39,5,1,7,0.00
2013-12-4,35.1,29.3,21.8,31.9,27.2,20.5,97,92,86,30.39,30.23,14,4,21,0.00
2013-12-5,40.0,36.2,33.2,35.7,32.0,29.1,93,85,76,30.33,29.64,35,11,44,0.04
2013-12-6,39.0,33.1,29.4,35.7,26.5,23.3,95,77,64,29.94,29.65,32,14,41,0.00
2013-12-7,34.5,32.0,28.5,31.8,27.1,23.3,96,82,70,30.22,29.94,24,12,35,0.00
2013-12-8,40.8,37.8,34.3,36.4,34.6,31.9,93,88,83,30.30,30.21,22,9,29,0.03
2013-12-9,42.4,41.3,40.1,40.5,38.7,36.4,94,91,84,30.44,30.16,25,11,31,0.33
2013-12-10,44.9,43.1,41.4,43.5,41.6,40.0,97,94,92,30.63,30.44,14,3,16,0.01
2013-12-11,42.4,40.1,36.8,40.4,38.5,36.2,98,94,91,30.62,30.55,7,2,12,0.00
2013-12-12,36.7,33.3,31.7,36.1,32.7,31.4,99,98,97,30.57,30.42,7,1,9,0.01
2013-12-13,31.9,29.9,28.7,31.6,29.5,28.2,99,98,98,30.42,30.31,7,1,10,0.01
2013-12-14,35.2,31.4,28.1,34.9,31.0,27.6,99,99,98,30.48,30.30,12,3,16,0.01
2013-12-15,40.8,37.2,35.0,35.9,33.6,30.7,99,87,73,30.52,30.45,12,4,18,0.02
2013-12-16,49.0,37.7,31.8,33.2,30.8,27.7,86,77,51,30.52,30.46,4,1,6,0.00
2013-12-17,37.7,31.6,26.2,30.9,27.8,24.4,93,86,75,30.46,30.40,7,2,9,0.00
2013-12-18,28.9,26.5,24.8,26.7,25.0,23.4,96,94,91,30.40,30.19,7,2,9,0.00
2013-12-19,29.7,27.1,23.1,26.6,24.8,21.8,95,91,87,30.19,30.02,10,3,13,0.00
2013-12-20,36.4,31.8,29.4,34.3,28.8,26.2,93,89,85,30.52,30.12,8,2,11,0.00
2013-12-21,41.7,35.3,29.8,33.9,31.3,28.8,97,86,66,30.57,30.36,10,2,18,0.01
2013-12-22,46.8,41.6,33.0,40.9,36.3,30.9,92,82,75,30.36,30.13,16,5,25,0.00
2013-12-23,48.8,45.4,40.5,40.8,39.2,37.0,89,79,68,30.18,29.98,17,6,26,0.01
2013-12-24,41.3,37.1,32.2,38.3,34.3,30.4,94,90,83,29.98,29.64,10,5,16,0.00
2013-12-25,46.9,42.2,38.3,41.2,38.1,36.0,94,86,76,29.64,29.38,10,4,16,0.00
2013-12-26,50.8,45.3,39.8,43.1,40.7,37.9,94,84,74,29.60,29.30,12,4,17,0.00
2013-12-27,45.9,41.1,37.1,39.7,37.9,34.7,96,89,74,29.85,29.60,14,4,15,0.02
2013-12-28,41.5,36.2,31.9,38.3,34.4,30.8,97,93,88,29.83,29.74,8,2,12,0.01
2013-12-29,41.9,38.2,32.2,37.9,34.5,31.4,98,87,74,30.30,29.80,17,5,25,0.00
2013-12-30,39.9,33.6,29.7,34.9,30.8,27.9,97,90,75,30.44,30.30,6,1,8,0.00
2013-12-31,35.7,31.7,25.8,34.2,30.2,24.5,97,94,91,30.35,30.09,6,1,10,0.02
2014-1-1,37.3,35.4,32.0,33.9,32.5,30.1,93,89,84,30.09,29.95,9,3,14,0.00
2014-1-2,37.3,35.1,31.9,34.8,32.4,29.8,95,90,85,29.95,29.83,12,3,14,0.04